Time;durP1;ratioP1;P1;durP2;ratioP2;P2;SDS_P1;SDS_P2;PMS_P1;PMS_P2;Temp;Humidity;BMP_temperature;BMP_pressure;BME280_temperature;BME280_humidity;BME280_pressure;Samples;Min_cycle;Max_cycle;Signal;HPM_P1;HPM_P2
2022/08/28 00:01:57;;;;;;;10.63;5.50;;;;;;;19.67;68.27;64034.81;5148135;27;20406;-76
2022/08/28 00:04:24;;;;;;;10.95;5.80;;;;;;;19.71;68.60;64041.06;5147228;27;20202;-76
2022/08/28 00:06:51;;;;;;;6.70;5.90;;;;;;;19.68;69.29;64037.91;5148265;27;20210;-77
2022/08/28 00:09:18;;;;;;;14.07;5.47;;;;;;;19.71;68.69;64041.56;5147564;27;20194;-78
2022/08/28 00:11:45;;;;;;;11.45;6.00;;;;;;;19.75;68.20;64048.34;5148437;27;20213;-77
2022/08/28 00:14:14;;;;;;;10.38;5.35;;;;;;;19.76;68.25;64043.69;5147381;27;20194;-77
2022/08/28 00:16:41;;;;;;;8.60;6.20;;;;;;;19.74;69.12;64044.19;5148844;27;20530;-77
2022/08/28 00:19:09;;;;;;;11.20;5.85;;;;;;;19.78;68.78;64045.75;5149518;27;20421;-77
2022/08/28 00:21:37;;;;;;;9.75;5.30;;;;;;;19.78;69.85;64048.34;5147876;27;20266;-77
2022/08/28 00:24:04;;;;;;;5.53;5.00;;;;;;;19.75;69.99;64047.81;5148533;27;20198;-77
2022/08/28 00:29:17;;;;;;;11.02;6.22;;;;;;;19.71;70.39;64043.66;5147944;27;20516;-77
2022/08/28 00:31:44;;;;;;;12.02;5.10;;;;;;;19.74;70.64;64039.56;5149064;27;20214;-76
2022/08/28 00:34:12;;;;;;;9.80;5.03;;;;;;;19.75;70.76;64045.22;5146778;27;20208;-76
2022/08/28 00:36:40;;;;;;;18.65;5.93;;;;;;;19.65;70.87;64037.91;5148405;27;20218;-79
2022/08/28 00:39:08;;;;;;;8.93;5.32;;;;;;;19.67;69.87;64037.41;5146270;27;20207;-76
2022/08/28 00:41:38;;;;;;;13.07;5.75;;;;;;;19.66;71.20;64036.34;5148265;27;20221;-77
2022/08/28 00:44:09;;;;;;;9.55;5.47;;;;;;;19.66;71.63;64033.25;5149489;27;20221;-76
2022/08/28 00:46:38;;;;;;;8.32;5.80;;;;;;;19.66;71.97;64035.84;5146702;27;20527;-78
2022/08/28 00:49:05;;;;;;;6.75;5.40;;;;;;;19.59;73.64;64029.06;5146513;27;20233;-77
2022/08/28 00:54:19;;;;;;;8.32;5.57;;;;;;;19.57;71.95;64023.88;5148297;27;20221;-77
2022/08/28 00:56:46;;;;;;;12.52;5.32;;;;;;;19.64;69.94;64033.75;5147621;27;20301;-77
2022/08/28 00:59:18;;;;;;;8.90;5.40;;;;;;;19.64;70.62;64031.69;5146132;27;20194;-76
2022/08/28 01:01:48;;;;;;;6.97;5.68;;;;;;;19.60;71.19;64027.00;5146277;27;20217;-78
2022/08/28 01:04:18;;;;;;;12.93;6.40;;;;;;;19.61;70.42;64031.16;5146769;27;20201;-77
2022/08/28 01:06:50;;;;;;;8.35;5.47;;;;;;;19.61;70.56;64025.97;5147384;27;20218;-77
2022/08/28 01:09:17;;;;;;;8.57;6.00;;;;;;;19.60;70.85;64032.16;5147272;27;20233;-76
2022/08/28 01:11:46;;;;;;;7.80;5.72;;;;;;;19.61;72.42;64030.63;5146880;27;20210;-78
2022/08/28 01:14:16;;;;;;;10.40;5.75;;;;;;;19.64;74.03;64036.84;5146773;27;20208;-77
2022/08/28 01:16:44;;;;;;;12.35;5.90;;;;;;;19.58;73.51;64027.50;5146432;27;20229;-77
2022/08/28 01:19:20;;;;;;;12.93;5.72;;;;;;;19.50;73.86;64020.19;5146002;27;20202;-77
2022/08/28 01:21:56;;;;;;;9.55;5.18;;;;;;;19.49;73.37;64016.03;5146723;27;20227;-76
2022/08/28 01:24:25;;;;;;;9.15;5.65;;;;;;;19.47;74.04;64017.06;5146806;27;20193;-77
2022/08/28 01:26:51;;;;;;;8.73;5.68;;;;;;;19.47;74.95;64008.78;5147490;27;20213;-77
2022/08/28 01:29:19;;;;;;;14.13;6.25;;;;;;;19.47;75.19;64016.53;5147802;27;20274;-77
2022/08/28 01:31:47;;;;;;;7.57;5.50;;;;;;;19.42;76.33;64009.28;5145695;27;20218;-78
2022/08/28 01:34:15;;;;;;;8.80;6.20;;;;;;;19.40;76.05;64006.66;5147653;27;20521;-77
2022/08/28 01:36:42;;;;;;;10.35;5.65;;;;;;;19.35;76.21;64007.13;5146587;27;20214;-76
2022/08/28 01:39:13;;;;;;;11.93;5.63;;;;;;;19.29;76.31;63997.75;5149075;27;20225;-76
2022/08/28 01:41:44;;;;;;;7.03;5.57;;;;;;;19.25;76.58;63994.09;5146216;27;20247;-77
2022/08/28 01:44:13;;;;;;;13.57;5.75;;;;;;;19.22;77.33;63990.47;5146065;27;20258;-78
2022/08/28 01:46:41;;;;;;;12.77;6.05;;;;;;;19.10;78.81;63978.44;5147551;27;20245;-77
2022/08/28 01:49:10;;;;;;;9.50;5.68;;;;;;;19.07;78.32;63975.31;5146330;27;20230;-78
2022/08/28 01:51:37;;;;;;;12.45;6.90;;;;;;;19.09;78.11;63977.41;5147565;27;20262;-77
2022/08/28 01:54:05;;;;;;;7.65;5.70;;;;;;;19.03;79.54;63973.75;5145392;27;20276;-77
2022/08/28 01:56:32;;;;;;;7.22;6.43;;;;;;;19.02;80.96;63961.84;5146482;27;20213;-77
2022/08/28 01:59:04;;;;;;;12.07;6.57;;;;;;;18.95;81.91;63967.44;5146453;27;20253;-77
2022/08/28 02:01:32;;;;;;;11.65;6.60;;;;;;;18.87;83.15;63951.91;5147441;27;20224;-77
2022/08/28 02:03:59;;;;;;;8.90;5.95;;;;;;;18.83;81.75;63947.72;5146471;27;20220;-76
2022/08/28 02:06:25;;;;;;;9.05;5.43;;;;;;;18.82;82.04;63951.84;5146429;28;20217;-76
2022/08/28 02:08:54;;;;;;;10.52;6.07;;;;;;;18.76;83.48;63940.44;5146877;27;20226;-78
2022/08/28 02:11:22;;;;;;;6.70;6.05;;;;;;;18.72;84.20;63938.84;5145220;28;20214;-77
2022/08/28 02:13:50;;;;;;;8.85;5.97;;;;;;;18.70;84.22;63936.75;5145936;28;20487;-77
2022/08/28 02:16:19;;;;;;;11.93;5.85;;;;;;;18.69;84.87;63935.72;5148451;27;20259;-77
2022/08/28 02:18:46;;;;;;;14.50;6.03;;;;;;;18.59;84.68;63922.72;5146591;27;20202;-76
2022/08/28 02:21:13;;;;;;;7.97;6.10;;;;;;;18.56;84.80;63917.00;5145023;28;20214;-76
2022/08/28 02:23:41;;;;;;;15.15;7.00;;;;;;;18.52;84.61;63912.84;5146001;28;20202;-76
2022/08/28 02:26:09;;;;;;;10.65;6.10;;;;;;;18.50;84.73;63910.25;5145130;28;20209;-77
2022/08/28 02:28:37;;;;;;;14.63;6.53;;;;;;;18.51;85.94;63916.44;5148657;27;20429;-76
2022/08/28 02:31:04;;;;;;;6.75;5.68;;;;;;;18.42;86.35;63908.09;5148609;27;20221;-77
2022/08/28 02:33:33;;;;;;;8.38;6.35;;;;;;;18.43;86.38;63908.63;5146314;28;20190;-77
2022/08/28 02:36:00;;;;;;;12.88;6.90;;;;;;;18.38;86.46;63903.91;5148218;27;20214;-78
2022/08/28 02:38:28;;;;;;;8.88;6.72;;;;;;;18.35;86.72;63900.78;5145701;28;20253;-76
2022/08/28 02:40:55;;;;;;;15.10;6.82;;;;;;;18.33;87.49;63896.13;5146805;27;20220;-77
2022/08/28 02:43:22;;;;;;;8.90;6.10;;;;;;;18.32;87.72;63897.16;5148586;28;20194;-77
2022/08/28 02:45:49;;;;;;;10.70;6.13;;;;;;;18.32;87.92;63894.56;5146336;28;20221;-77
2022/08/28 02:48:16;;;;;;;7.35;6.10;;;;;;;18.29;88.07;63891.44;5145287;27;20263;-77
2022/08/28 02:50:45;;;;;;;9.70;6.53;;;;;;;18.26;87.46;63888.31;5145729;28;20193;-76
2022/08/28 02:53:12;;;;;;;7.30;5.78;;;;;;;18.25;87.38;63887.78;5147692;28;20198;-77
2022/08/28 02:55:39;;;;;;;5.93;5.43;;;;;;;18.26;87.78;63896.56;5146368;28;20194;-77
2022/08/28 02:58:08;;;;;;;10.55;6.45;;;;;;;18.23;87.77;63887.75;5146205;27;20526;-77
2022/08/28 03:00:35;;;;;;;8.23;6.28;;;;;;;18.21;88.97;63881.03;5146687;27;20198;-77
2022/08/28 03:03:02;;;;;;;7.57;5.95;;;;;;;18.22;89.06;63887.22;5146126;28;20190;-76
2022/08/28 03:05:29;;;;;;;11.95;5.65;;;;;;;18.16;88.45;63880.47;5145882;28;20202;-77
2022/08/28 03:07:57;;;;;;;10.23;5.40;;;;;;;18.14;87.58;63875.81;5144975;28;20198;-76
2022/08/28 03:10:24;;;;;;;9.52;5.25;;;;;;;18.16;87.84;63883.56;5145509;27;20194;-77
2022/08/28 03:12:51;;;;;;;9.02;5.68;;;;;;;18.16;88.63;63880.47;5147113;27;20194;-77
2022/08/28 03:15:19;;;;;;;6.82;6.00;;;;;;;18.13;89.42;63872.72;5149319;27;20363;-76
2022/08/28 03:17:46;;;;;;;13.13;5.88;;;;;;;18.14;88.69;63878.38;5149432;27;20278;-76
2022/08/28 03:20:13;;;;;;;18.08;6.35;;;;;;;18.10;88.71;63872.16;5150615;27;20197;-77
2022/08/28 03:25:28;;;;;;;7.65;5.20;;;;;;;18.12;89.21;63871.66;5149907;27;20422;-78
2022/08/28 03:27:54;;;;;;;10.63;5.30;;;;;;;18.11;89.14;63875.25;5149202;27;20205;-76
2022/08/28 03:30:22;;;;;;;6.57;5.90;;;;;;;18.08;89.32;63866.97;5149697;27;20202;-78
2022/08/28 03:32:50;;;;;;;12.60;5.95;;;;;;;18.01;89.23;63860.22;5148914;27;20194;-76
2022/08/28 03:35:17;;;;;;;8.68;5.40;;;;;;;18.05;89.78;63869.53;5149542;27;20200;-78
2022/08/28 03:37:44;;;;;;;8.57;5.70;;;;;;;18.05;90.07;63869.53;5149165;27;20214;-77
2022/08/28 03:40:12;;;;;;;10.90;6.05;;;;;;;17.96;91.06;63859.63;5148488;27;20222;-76
2022/08/28 03:42:40;;;;;;;8.20;5.72;;;;;;;17.91;91.84;63851.84;5149041;27;20573;-77
2022/08/28 03:45:10;;;;;;;9.45;6.05;;;;;;;17.86;91.84;63847.16;5149683;27;20201;-76
2022/08/28 03:47:37;;;;;;;9.38;6.78;;;;;;;17.84;91.39;63845.09;5148194;27;20233;-77
2022/08/28 03:50:06;;;;;;;11.25;6.75;;;;;;;17.84;91.96;63847.66;5150969;27;20285;-79
2022/08/28 03:52:33;;;;;;;8.98;6.13;;;;;;;17.78;92.60;63838.84;5150611;27;20228;-77
2022/08/28 03:55:00;;;;;;;8.88;6.47;;;;;;;17.77;92.73;63837.78;5152392;27;20205;-77
2022/08/28 03:57:27;;;;;;;11.27;5.57;;;;;;;17.78;92.24;63840.88;5151431;27;20251;-77
2022/08/28 03:59:55;;;;;;;6.78;5.72;;;;;;;17.85;91.93;63848.69;5153321;27;20231;-80
2022/08/28 04:02:22;;;;;;;11.10;6.13;;;;;;;17.89;92.32;63852.88;5153149;27;20210;-77
2022/08/28 04:04:50;;;;;;;12.95;6.60;;;;;;;17.93;92.00;63854.44;5148779;27;20364;-77
2022/08/28 04:07:18;;;;;;;7.15;6.20;;;;;;;17.94;92.32;63857.56;5148397;27;20218;-77
2022/08/28 04:09:45;;;;;;;8.35;5.90;;;;;;;18.00;92.00;63863.81;5150039;27;20225;-77
2022/08/28 04:12:13;;;;;;;6.82;5.10;;;;;;;18.01;92.48;63862.78;5147499;27;20217;-77
2022/08/28 04:14:40;;;;;;;8.30;5.78;;;;;;;18.09;90.72;63873.16;5150809;27;20194;-78
2022/08/28 04:17:08;;;;;;;7.85;5.35;;;;;;;18.12;91.36;63873.72;5151502;27;20243;-78
2022/08/28 04:19:36;;;;;;;6.72;5.50;;;;;;;18.16;90.98;63880.47;5150987;27;20265;-77
2022/08/28 04:22:04;;;;;;;10.70;5.88;;;;;;;18.26;90.81;63883.16;5152101;27;20214;-77
2022/08/28 04:24:31;;;;;;;8.45;5.95;;;;;;;18.31;90.43;63896.63;5149859;27;20189;-77
2022/08/28 04:26:58;;;;;;;9.15;5.95;;;;;;;18.43;89.63;63909.13;5149268;27;20237;-76
2022/08/28 04:29:25;;;;;;;13.25;5.97;;;;;;;18.49;89.16;63909.72;5147659;27;20234;-76
2022/08/28 04:31:51;;;;;;;7.03;6.30;;;;;;;18.56;88.36;63922.16;5150611;27;20218;-77
2022/08/28 04:34:20;;;;;;;10.20;6.40;;;;;;;18.68;87.25;63934.69;5148115;27;20277;-77
2022/08/28 04:36:46;;;;;;;8.38;6.32;;;;;;;18.74;87.98;63940.41;5148973;27;20235;-77
2022/08/28 04:39:13;;;;;;;10.88;7.15;;;;;;;18.79;88.16;63948.22;5148588;27;20524;-77
2022/08/28 04:41:40;;;;;;;10.45;6.38;;;;;;;18.91;87.17;63953.50;5147123;27;20214;-78
2022/08/28 04:44:08;;;;;;;8.40;6.90;;;;;;;19.01;86.66;63966.50;5146262;27;20205;-77
2022/08/28 04:46:35;;;;;;;11.57;6.25;;;;;;;19.12;85.17;63983.13;5146693;27;20214;-77
2022/08/28 04:49:04;;;;;;;10.32;6.50;;;;;;;19.23;84.93;63988.91;5147241;27;20294;-76
2022/08/28 04:51:33;;;;;;;11.18;6.40;;;;;;;19.36;85.59;63997.34;5147183;27;20214;-77
2022/08/28 04:54:02;;;;;;;9.40;6.05;;;;;;;19.47;85.95;64019.13;5146674;27;20279;-76
2022/08/28 04:56:29;;;;;;;6.72;5.97;;;;;;;19.61;86.09;64030.63;5147406;27;20427;-77
2022/08/28 04:58:56;;;;;;;12.88;5.53;;;;;;;19.74;85.54;64044.72;5147556;27;20227;-78
2022/08/28 05:01:24;;;;;;;8.57;5.95;;;;;;;19.86;86.57;64056.72;5147634;27;20251;-76
2022/08/28 05:03:56;;;;;;;11.82;5.60;;;;;;;19.99;89.21;64067.69;5147162;27;20196;-78
2022/08/28 05:06:25;;;;;;;7.82;5.18;;;;;;;20.12;89.22;64079.19;5147686;27;20218;-77
2022/08/28 05:08:54;;;;;;;7.65;6.05;;;;;;;20.17;88.33;64086.50;5147865;27;20228;-77
2022/08/28 05:11:23;;;;;;;18.00;7.18;;;;;;;20.22;86.06;64089.13;5147214;27;20214;-78
2022/08/28 05:13:51;;;;;;;11.80;7.35;;;;;;;20.02;84.30;64071.31;5148648;27;20208;-76
2022/08/28 05:16:20;;;;;;;8.60;7.63;;;;;;;19.92;86.61;64062.97;5147515;27;20236;-77
2022/08/28 05:18:48;;;;;;;9.70;7.05;;;;;;;20.00;88.69;64068.72;5147737;27;20194;-77
2022/08/28 05:21:19;;;;;;;9.63;7.75;;;;;;;20.14;88.36;64086.44;5148050;27;20514;-77
2022/08/28 05:23:46;;;;;;;17.48;7.18;;;;;;;20.13;88.36;64080.22;5146210;27;20383;-77
2022/08/28 05:26:17;;;;;;;10.13;6.95;;;;;;;20.19;86.52;64091.69;5146571;27;20309;-78
2022/08/28 05:28:44;;;;;;;12.88;7.50;;;;;;;20.12;89.65;64081.25;5147473;27;20501;-76
2022/08/28 05:31:12;;;;;;;11.13;7.10;;;;;;;20.10;87.39;64084.88;5147369;27;20218;-77
2022/08/28 05:33:39;;;;;;;16.23;7.88;;;;;;;20.07;83.62;64078.63;5146235;27;20194;-77
2022/08/28 05:36:07;;;;;;;11.00;7.80;;;;;;;20.18;82.77;64088.06;5146659;27;20218;-76
2022/08/28 05:38:34;;;;;;;17.45;9.02;;;;;;;20.07;86.13;64078.63;5145963;27;20265;-77
2022/08/28 05:41:02;;;;;;;17.02;7.50;;;;;;;20.19;84.94;64088.59;5147958;27;20213;-76
2022/08/28 05:43:31;;;;;;;9.75;7.43;;;;;;;20.32;85.90;64102.66;5147403;27;20202;-77
2022/08/28 05:45:59;;;;;;;13.93;7.97;;;;;;;20.28;86.48;64101.06;5147599;27;20277;-76
2022/08/28 05:48:30;;;;;;;11.63;8.73;;;;;;;20.26;84.64;64098.97;5146052;27;20190;-77
2022/08/28 05:50:57;;;;;;;16.08;8.77;;;;;;;20.42;83.85;64118.28;5146269;27;20217;-77
2022/08/28 05:53:25;;;;;;;9.75;7.72;;;;;;;20.64;83.66;64138.13;5147297;27;20231;-77
2022/08/28 05:55:52;;;;;;;16.63;8.48;;;;;;;20.87;82.46;64161.63;5147150;27;20590;-76
2022/08/28 05:58:33;;;;;;;17.52;8.32;;;;;;;20.81;81.85;64150.19;5146704;27;20192;-77
2022/08/28 06:01:12;;;;;;;11.38;8.10;;;;;;;20.89;81.35;64161.13;5147117;27;20221;-77
2022/08/28 06:03:41;;;;;;;11.38;8.15;;;;;;;20.83;83.73;64157.97;5145994;27;20190;-78
2022/08/28 06:06:10;;;;;;;13.10;7.82;;;;;;;20.95;83.11;64165.31;5148404;27;20229;-78
2022/08/28 06:08:38;;;;;;;7.88;7.07;;;;;;;21.06;83.03;64176.81;5144642;28;20265;-76
2022/08/28 06:11:06;;;;;;;11.90;7.65;;;;;;;21.26;80.80;64202.38;5147971;28;20214;-77
2022/08/28 06:13:33;;;;;;;11.68;7.22;;;;;;;21.37;81.49;64213.84;5145720;27;20223;-77
2022/08/28 06:16:00;;;;;;;10.80;8.02;;;;;;;21.36;80.34;64207.63;5146098;27;20218;-78
2022/08/28 06:18:29;;;;;;;16.80;8.10;;;;;;;21.55;79.48;64230.56;5146590;28;20504;-77
2022/08/28 06:20:57;;;;;;;12.90;7.30;;;;;;;21.69;76.23;64244.69;5147402;28;20397;-77
2022/08/28 06:23:24;;;;;;;18.65;7.30;;;;;;;21.82;75.26;64255.69;5146024;28;20210;-77
2022/08/28 06:25:52;;;;;;;9.75;7.55;;;;;;;21.81;75.06;64257.25;5146647;28;20221;-77
2022/08/28 06:28:25;;;;;;;12.27;7.60;;;;;;;21.83;75.34;64264.50;5145790;27;20194;-77
2022/08/28 06:30:53;;;;;;;14.10;7.63;;;;;;;21.99;74.69;64278.13;5147585;28;20506;-76
2022/08/28 06:33:21;;;;;;;10.55;7.10;;;;;;;21.76;73.62;64255.13;5145794;27;20210;-77
2022/08/28 06:35:51;;;;;;;12.95;8.23;;;;;;;22.09;73.80;64289.09;5146089;28;20225;-77
2022/08/28 06:38:19;;;;;;;8.23;6.97;;;;;;;22.20;73.93;64298.00;5145794;27;20202;-77
2022/08/28 06:40:48;;;;;;;7.80;7.05;;;;;;;22.29;71.53;64306.88;5145500;27;20285;-76
2022/08/28 06:43:17;;;;;;;13.73;6.72;;;;;;;22.42;71.34;64328.25;5145939;28;20239;-77
2022/08/28 06:45:48;;;;;;;9.27;6.93;;;;;;;22.53;72.85;64337.69;5148143;27;20281;-77
2022/08/28 06:48:18;;;;;;;8.27;6.82;;;;;;;22.32;71.74;64315.22;5148311;27;20399;-77
2022/08/28 06:50:47;;;;;;;12.32;6.75;;;;;;;22.44;70.73;64328.28;5148817;27;20539;-77
2022/08/28 06:53:17;;;;;;;16.58;7.20;;;;;;;22.40;71.47;64318.41;5150314;27;20378;-77
2022/08/28 06:55:44;;;;;;;8.32;6.60;;;;;;;22.56;70.77;64337.72;5150621;27;20222;-76
2022/08/28 06:58:12;;;;;;;8.57;6.18;;;;;;;22.73;70.03;64353.44;5149422;27;20514;-76
2022/08/28 07:00:40;;;;;;;8.23;6.47;;;;;;;22.68;69.05;64348.19;5150027;27;20202;-78
2022/08/28 07:03:06;;;;;;;7.68;6.07;;;;;;;22.71;70.24;64348.22;5149691;27;20197;-78
2022/08/28 07:05:34;;;;;;;13.68;6.95;;;;;;;22.80;67.61;64358.16;5149496;27;20208;-77
2022/08/28 07:08:01;;;;;;;6.70;6.10;;;;;;;22.92;66.42;64372.25;5150875;27;20308;-78
2022/08/28 07:10:31;;;;;;;9.63;6.28;;;;;;;22.90;65.28;64379.00;5150603;27;20233;-77
2022/08/28 07:12:59;;;;;;;7.63;6.70;;;;;;;22.93;64.14;64376.44;5150145;27;20223;-77
2022/08/28 07:15:26;;;;;;;6.22;5.50;;;;;;;23.08;64.85;64388.97;5149718;27;20213;-77
2022/08/28 07:17:53;;;;;;;12.98;6.80;;;;;;;23.18;63.67;64402.03;5149076;27;20239;-77
2022/08/28 07:20:20;;;;;;;9.88;6.10;;;;;;;23.17;64.53;64398.94;5149628;27;20194;-78
2022/08/28 07:22:47;;;;;;;12.13;6.22;;;;;;;23.25;64.73;64409.88;5153226;27;20260;-78
2022/08/28 07:25:14;;;;;;;10.15;6.20;;;;;;;23.35;64.36;64422.47;5150993;27;20194;-78
2022/08/28 07:27:42;;;;;;;8.98;6.68;;;;;;;23.58;63.38;64441.31;5151642;27;20527;-77
2022/08/28 07:30:12;;;;;;;7.05;5.38;;;;;;;23.77;62.85;64458.59;5150661;27;20232;-77
2022/08/28 07:32:39;;;;;;;12.10;6.10;;;;;;;23.83;61.15;64473.19;5149316;27;20222;-77
2022/08/28 07:35:07;;;;;;;7.00;5.20;;;;;;;23.80;60.61;64466.94;5150989;27;20397;-79
2022/08/28 07:37:34;;;;;;;7.88;4.88;;;;;;;24.06;58.26;64491.56;5151588;27;20259;-76
2022/08/28 07:40:00;;;;;;;6.07;5.15;;;;;;;24.07;56.63;64500.44;5150475;27;20218;-77
2022/08/28 07:45:13;;;;;;;9.02;5.82;;;;;;;24.10;58.84;64497.81;5150081;27;20200;-77
2022/08/28 07:47:40;;;;;;;6.43;5.28;;;;;;;24.18;57.03;64506.72;5149720;27;20255;-77
2022/08/28 07:50:08;;;;;;;9.98;5.80;;;;;;;24.17;57.26;64510.34;5151860;27;20237;-78
2022/08/28 07:52:36;;;;;;;10.10;5.53;;;;;;;24.44;56.29;64536.53;5150788;27;20510;-77
2022/08/28 07:55:04;;;;;;;9.80;4.93;;;;;;;24.55;54.96;64545.47;5150163;27;20231;-78
2022/08/28 07:57:31;;;;;;;8.80;5.57;;;;;;;24.67;55.49;64554.91;5149758;27;20247;-77
2022/08/28 08:00:15;;;;;;;14.07;6.50;;;;;;;24.76;53.91;64567.47;5158753;27;20509;-78
2022/08/28 08:02:49;;;;;;;8.88;5.70;;;;;;;24.87;53.48;64578.47;5371386;22;20259;-77
2022/08/28 08:05:20;;;;;;;12.80;5.55;;;;;;;24.99;52.95;64591.56;5100612;28;20191;-77
2022/08/28 08:07:56;;;;;;;8.27;4.95;;;;;;;25.16;51.69;64608.84;5100370;28;20216;-78
2022/08/28 08:10:27;;;;;;;10.85;5.68;;;;;;;25.28;50.81;64621.44;5097719;28;20223;-77
2022/08/28 08:12:56;;;;;;;14.55;6.00;;;;;;;25.47;51.39;64643.94;5089293;28;20263;-77
2022/08/28 08:15:23;;;;;;;12.98;6.10;;;;;;;25.33;53.40;64624.06;5097292;28;20186;-77
2022/08/28 08:17:51;;;;;;;10.50;5.10;;;;;;;25.54;50.85;64646.06;5086826;28;20207;-76
2022/08/28 08:20:18;;;;;;;10.02;4.97;;;;;;;25.67;50.28;64661.78;5088970;28;20196;-76
2022/08/28 08:22:45;;;;;;;7.35;4.63;;;;;;;25.83;48.15;64676.47;5088150;28;20363;-77
2022/08/28 08:25:13;;;;;;;6.80;5.07;;;;;;;25.97;47.88;64696.34;5086357;28;20219;-77
2022/08/28 08:27:40;;;;;;;7.43;4.68;;;;;;;26.16;47.56;64715.78;5087527;28;20215;-78
2022/08/28 08:30:08;;;;;;;9.85;5.03;;;;;;;26.32;48.32;64729.41;5089360;28;20232;-76
2022/08/28 08:32:38;;;;;;;5.70;5.18;;;;;;;26.25;47.86;64722.06;5087439;28;20216;-78
2022/08/28 08:35:07;;;;;;;7.60;4.85;;;;;;;26.36;47.94;64731.53;5087307;28;20196;-77
2022/08/28 08:37:34;;;;;;;7.72;5.10;;;;;;;26.15;48.16;64715.25;5087758;28;20468;-76
2022/08/28 08:40:00;;;;;;;5.80;4.93;;;;;;;26.28;47.13;64723.13;5086798;28;20196;-76
2022/08/28 08:42:36;;;;;;;9.75;5.35;;;;;;;26.51;44.81;64749.34;5092853;28;20224;-79
2022/08/28 08:45:04;;;;;;;6.07;4.57;;;;;;;26.66;45.30;64765.56;5089759;28;20215;-77
2022/08/28 08:47:37;;;;;;;9.35;5.55;;;;;;;26.72;45.52;64771.91;5087349;28;20238;-78
2022/08/28 08:50:09;;;;;;;9.88;5.90;;;;;;;26.78;48.78;64772.44;5086142;28;20226;-76
2022/08/28 08:53:05;;;;;;;11.15;5.85;;;;;;;26.56;47.97;64757.19;5087535;28;20270;-78
2022/08/28 08:55:35;;;;;;;6.28;5.68;;;;;;;26.45;48.37;64740.44;5086879;28;20329;-77
2022/08/28 08:58:06;;;;;;;8.43;6.38;;;;;;;26.48;49.05;64748.78;5085930;28;20192;-78
2022/08/28 09:00:40;;;;;;;12.32;5.43;;;;;;;26.51;48.88;64746.72;5085667;28;20244;-75
2022/08/28 09:03:13;;;;;;;8.75;4.80;;;;;;;26.54;49.89;64752.47;5085921;28;20210;-77
2022/08/28 09:05:49;;;;;;;10.90;4.82;;;;;;;26.63;49.23;64761.94;5085524;28;20248;-76
2022/08/28 09:08:26;;;;;;;13.25;4.90;;;;;;;26.73;48.64;64772.94;5086095;28;20294;-76
2022/08/28 09:11:01;;;;;;;11.80;5.57;;;;;;;26.59;47.09;64757.72;5084185;28;20427;-76
2022/08/28 09:13:39;;;;;;;14.23;6.40;;;;;;;26.51;47.70;64751.97;5086610;28;20195;-79
2022/08/28 09:16:17;;;;;;;10.40;5.60;;;;;;;26.65;48.29;64764.00;5086656;28;20493;-76
2022/08/28 09:18:45;;;;;;;8.20;5.43;;;;;;;26.72;47.09;64768.75;5086306;28;20184;-78
2022/08/28 09:21:25;;;;;;;10.23;5.60;;;;;;;27.01;46.65;64799.69;5087984;28;20240;-77
2022/08/28 09:23:53;;;;;;;6.88;5.57;;;;;;;27.27;45.64;64829.06;5086704;28;20214;-78
2022/08/28 09:26:23;;;;;;;12.38;5.40;;;;;;;27.41;45.95;64846.38;5088560;28;20408;-77
2022/08/28 09:29:02;;;;;;;11.85;5.93;;;;;;;27.41;45.79;64840.63;5087755;28;20203;-78
2022/08/28 09:31:32;;;;;;;7.55;5.15;;;;;;;27.57;45.80;64860.03;5087808;28;20249;-77
2022/08/28 09:34:18;;;;;;;10.75;6.32;;;;;;;27.82;45.18;64886.81;5085889;28;20207;-76
2022/08/28 09:36:47;;;;;;;12.02;5.43;;;;;;;27.99;45.99;64902.03;5084351;28;20216;-78
2022/08/28 09:39:18;;;;;;;9.13;6.43;;;;;;;28.16;46.12;64925.13;5088020;28;20196;-76
2022/08/28 09:44:59;;;;;;;16.50;6.05;;;;;;;28.41;42.68;64948.25;5085837;28;20226;-77
2022/08/28 09:47:47;;;;;;;10.07;6.10;;;;;;;27.98;42.51;64903.63;5085465;28;20280;-78
2022/08/28 09:50:31;;;;;;;9.93;5.22;;;;;;;28.18;41.43;64921.47;5084708;28;20216;-77
2022/08/28 09:53:14;;;;;;;11.18;5.35;;;;;;;28.16;42.81;64919.88;5085197;28;20371;-78
2022/08/28 09:55:50;;;;;;;5.57;4.85;;;;;;;28.18;41.36;64931.97;5086636;28;20377;-77
2022/08/28 09:58:17;;;;;;;5.78;4.72;;;;;;;28.00;41.29;64905.72;5085045;28;20194;-77
2022/08/28 10:00:52;;;;;;;10.18;5.40;;;;;;;27.95;42.11;64897.34;5084819;28;20242;-76
2022/08/28 10:03:26;;;;;;;12.05;5.40;;;;;;;28.07;42.55;64912.53;5084594;28;20204;-78
2022/08/28 10:06:01;;;;;;;10.25;5.45;;;;;;;28.29;42.89;64936.16;5086106;28;20443;-76
2022/08/28 10:08:47;;;;;;;7.53;5.32;;;;;;;28.26;43.32;64933.03;5086219;28;20255;-78
2022/08/28 10:11:23;;;;;;;8.20;5.50;;;;;;;28.41;42.06;64948.25;5085721;28;20246;-77
2022/08/28 10:13:58;;;;;;;16.00;5.97;;;;;;;28.48;41.33;64957.69;5084416;28;20188;-77
2022/08/28 10:16:39;;;;;;;7.28;5.93;;;;;;;28.70;41.13;64978.72;5088272;28;20215;-79
2022/08/28 10:19:19;;;;;;;14.60;5.85;;;;;;;28.95;40.16;65004.97;5090299;28;20203;-77
2022/08/28 10:21:59;;;;;;;8.48;6.05;;;;;;;28.72;41.88;64980.28;5090889;28;20230;-77
2022/08/28 10:24:42;;;;;;;13.20;6.53;;;;;;;28.83;42.38;64994.47;5095576;28;20206;-75
2022/08/28 10:27:18;;;;;;;10.27;5.68;;;;;;;29.06;41.24;65013.38;5091856;28;20219;-79
2022/08/28 10:29:53;;;;;;;12.55;5.65;;;;;;;29.17;39.02;65030.19;5090328;28;20203;-77
2022/08/28 10:32:49;;;;;;;8.93;5.50;;;;;;;29.20;39.06;65025.50;5089825;28;20215;-79
2022/08/28 10:35:21;;;;;;;10.48;6.43;;;;;;;29.26;38.93;65034.41;5089778;28;20188;-78
2022/08/28 10:38:00;;;;;;;6.45;5.65;;;;;;;29.33;37.81;65041.78;5090900;28;20231;-76
2022/08/28 10:40:33;;;;;;;7.18;6.22;;;;;;;29.21;38.01;65037.03;5090328;28;20194;-77
2022/08/28 10:43:05;;;;;;;7.93;5.80;;;;;;;28.98;38.63;65013.38;5088721;28;20228;-76
2022/08/28 10:45:34;;;;;;;9.68;6.05;;;;;;;28.85;38.20;64996.56;5086900;28;20188;-74
2022/08/28 10:48:09;;;;;;;10.13;5.55;;;;;;;28.91;37.76;65000.78;5087352;28;20422;-73
2022/08/28 10:50:42;;;;;;;6.15;5.55;;;;;;;29.16;36.01;65027.06;5086647;28;20218;-74
2022/08/28 10:53:14;;;;;;;14.25;6.53;;;;;;;29.12;34.99;65025.47;5087615;28;20184;-73
2022/08/28 10:55:53;;;;;;;7.57;4.90;;;;;;;29.20;34.64;65028.63;5087976;28;20222;-73
2022/08/28 10:58:22;;;;;;;7.60;5.55;;;;;;;29.48;35.46;65063.31;5087071;28;20196;-74
2022/08/28 11:00:49;;;;;;;8.18;6.10;;;;;;;29.66;36.29;65076.44;5082771;28;20212;-74
2022/08/28 11:03:21;;;;;;;9.02;6.47;;;;;;;29.38;35.46;65047.56;5086357;28;20272;-73
2022/08/28 11:05:52;;;;;;;6.82;6.03;;;;;;;29.34;36.11;65042.81;5084645;28;20231;-73
2022/08/28 11:08:26;;;;;;;6.00;5.20;;;;;;;29.47;35.93;65059.63;5083112;28;20184;-72
2022/08/28 11:10:57;;;;;;;10.98;6.05;;;;;;;29.56;35.72;65070.66;5084490;28;20228;-73
2022/08/28 11:13:54;;;;;;;8.95;5.90;;;;;;;29.75;37.25;65088.03;5074982;28;20189;-72
2022/08/28 11:16:24;;;;;;;10.77;5.78;;;;;;;30.01;37.74;65115.38;5081421;28;20220;-74
2022/08/28 11:19:16;;;;;;;11.88;5.85;;;;;;;30.25;35.12;65146.38;5085855;28;20196;-72
2022/08/28 11:21:48;;;;;;;10.73;5.68;;;;;;;30.32;35.99;65151.13;5075912;28;20219;-73
2022/08/28 11:24:33;;;;;;;10.95;5.75;;;;;;;30.48;34.72;65162.16;5071652;28;20208;-74
2022/08/28 11:27:16;;;;;;;10.65;5.70;;;;;;;30.56;35.03;65173.22;5077676;28;20220;-73
2022/08/28 11:30:31;;;;;;;9.38;5.85;;;;;;;30.53;34.86;65173.19;5075604;28;20225;-74
2022/08/28 11:33:08;;;;;;;7.47;5.13;;;;;;;30.59;35.01;65174.25;5076520;28;20253;-74
2022/08/28 11:35:45;;;;;;;9.35;6.10;;;;;;;30.37;34.19;65153.22;5077879;28;20199;-74
2022/08/28 11:38:46;;;;;;;7.03;6.30;;;;;;;30.69;34.25;65186.34;5081904;28;20194;-73
2022/08/28 11:41:16;;;;;;;8.30;5.60;;;;;;;30.98;34.58;65216.88;5077918;28;20523;-73
2022/08/28 11:43:46;;;;;;;8.77;5.60;;;;;;;30.81;33.68;65199.53;5071955;28;20193;-73
2022/08/28 11:46:25;;;;;;;14.40;10.98;;;;;;;30.74;33.98;65191.59;5073246;28;20227;-74
2022/08/28 11:48:54;;;;;;;9.32;6.05;;;;;;;30.93;33.69;65212.13;5077361;28;20192;-71
2022/08/28 11:51:52;;;;;;;7.00;5.68;;;;;;;31.07;33.97;65231.59;5076109;28;20353;-72
2022/08/28 11:54:34;;;;;;;14.73;5.75;;;;;;;30.78;33.68;65198.97;5076484;28;20216;-72
2022/08/28 11:57:07;;;;;;;9.88;5.70;;;;;;;30.78;33.21;65198.44;5080137;28;20220;-71
2022/08/28 12:00:10;;;;;;;6.03;5.63;;;;;;;30.66;33.31;65185.81;5077296;28;20198;-73